ENBR/BGO METAR and TAF weather

Enter ICAO airport designator
Station Type Date Time Source
ENBR METAR 2020/09/22 16:20 UTC NOAA

ENBR 221620Z 17022KT 9999 SCT025 BKN036 13/09 Q0999 NOSIG RMK WIND 1200FT 16030G41KT


Station Type Date Time Source
ENBR Decoded METAR 2020/09/22 16:20 UTC NOAA

Bergen / Flesland, Norway (ENBR) 60-17N 005-14E 50M
Sep 22, 2020 - 12:20 PM EDT / 2020.09.22 1620 UTC
Wind: from the S (170 degrees) at 25 MPH (22 KT):0
Visibility: greater than 7 mile(s):0
Sky conditions: mostly cloudy
Temperature: 55 F (13 C)
Dew Point: 48 F (9 C)
Relative Humidity: 76%
Pressure (altimeter): 29.50 in. Hg (0999 hPa)
ob: ENBR 221620Z 17022KT 9999 SCT025 BKN036 13/09 Q0999 NOSIG RMK WIND 1200FT 16030G41KT
cycle: 16

Station Type Date Time Source
ENBR TAF 2020/09/22 12:57 UTC NOAA

TAF ENBR 221100Z 2212/2312 17012KT 9999 SCT018 BKN030
BECMG 2212/2215 18018G30KT
BECMG 2218/2220 BKN012
TEMPO 2220/2309 2000 SHRA BR BKN004 SCT018CB
BECMG 2304/2307 34010KT

Example: see airport list